PWSweather.com
Personal Weather Stations
Station Observations
ITROMSHA6
HarstadNO 9407

HarstadNO 9407

Lat: 68.7814767, Lon: 16.5297091

Elevation: 145

Station Type: Davis Vantage Pro2

High Low Average
Temperature 30.7°F-0.7°C 23.9°F-4.5°C 28.0°F-2.2°C
Dew Point 25.3°F-3.7°C 19.8°F-6.8°C 22.7°F-5.2°C
Winds 10.0 mph 16.1 kmh Calm Calm 3.0 mph SW4.8 kmh SW
Wind Gusts 12.0 mph19.3 kmh -- 1.0 mph1.6 kmh
Humidity 87% 74% 80%
Pressure 29.70 in1005.8 mb 29.53 in1000.0 mb -
Precipitation 0.00 in0.0 mm - -
Hour Temp Dew Point Humidity Winds Wind Gusts Pressure Precip Precip Rate Daily Precip Total
12:00 AM 27.5°F-2.5°C 22.8°F-5.1°C 82% 4.0 mph SW6.4 kmh SW -- 29.70 in1005.8 mb 0.00 in0.0 mm 0.00 in0.0 mm 0.00 in0.0 mm
12:05 AM 27.4°F-2.6°C 22.8°F-5.1°C 83% 3.0 mph WSW4.8 kmh WSW -- 29.70 in1005.8 mb 0.00 in0.0 mm 0.00 in0.0 mm 0.00 in0.0 mm
12:10 AM 28.5°F-1.9°C 23.7°F-4.6°C 82% 2.0 mph WSW3.2 kmh WSW 6.0 mph9.7 kmh 29.70 in1005.8 mb 0.00 in0.0 mm 0.00 in0.0 mm 0.00 in0.0 mm
12:15 AM 28.9°F-1.7°C 23.9°F-4.5°C 81% 4.0 mph WSW6.4 kmh WSW -- 29.70 in1005.8 mb 0.00 in0.0 mm 0.00 in0.0 mm 0.00 in0.0 mm
12:20 AM 29.2°F-1.6°C 23.4°F-4.8°C 79% 2.0 mph SW3.2 kmh SW -- 29.70 in1005.8 mb 0.00 in0.0 mm 0.00 in0.0 mm 0.00 in0.0 mm
12:25 AM 29.1°F-1.6°C 23.4°F-4.8°C 79% 3.0 mph WSW4.8 kmh WSW -- 29.70 in1005.8 mb 0.00 in0.0 mm 0.00 in0.0 mm 0.00 in0.0 mm
12:30 AM 29.8°F-1.2°C 23.9°F-4.5°C 78% 3.0 mph WSW4.8 kmh WSW -- 29.70 in1005.8 mb 0.00 in0.0 mm 0.00 in0.0 mm 0.00 in0.0 mm
12:35 AM 29.9°F-1.2°C 23.5°F-4.7°C 77% 3.0 mph WSW4.8 kmh WSW 6.0 mph9.7 kmh 29.70 in1005.8 mb 0.00 in0.0 mm 0.00 in0.0 mm 0.00 in0.0 mm
12:40 AM 29.6°F-1.3°C 23.0°F-5.0°C 76% 3.0 mph SW4.8 kmh SW -- 29.70 in1005.8 mb 0.00 in0.0 mm 0.00 in0.0 mm 0.00 in0.0 mm
12:45 AM 29.7°F-1.3°C 23.4°F-4.8°C 77% 4.0 mph SW6.4 kmh SW -- 29.70 in1005.8 mb 0.00 in0.0 mm 0.00 in0.0 mm 0.00 in0.0 mm
12:50 AM 29.9°F-1.2°C 23.5°F-4.7°C 77% 4.0 mph WSW6.4 kmh WSW -- 29.70 in1005.8 mb 0.00 in0.0 mm 0.00 in0.0 mm 0.00 in0.0 mm
12:55 AM 30.3°F-0.9°C 23.7°F-4.6°C 76% 5.0 mph WSW8.0 kmh WSW -- 29.70 in1005.8 mb 0.00 in0.0 mm 0.00 in0.0 mm 0.00 in0.0 mm
01:00 AM 30.2°F-1.0°C 23.5°F-4.7°C 76% 3.0 mph WSW4.8 kmh WSW 8.0 mph12.9 kmh 29.70 in1005.8 mb 0.00 in0.0 mm 0.00 in0.0 mm 0.00 in0.0 mm
01:05 AM 29.7°F-1.3°C 23.0°F-5.0°C 76% 4.0 mph WSW6.4 kmh WSW -- 29.70 in1005.8 mb 0.00 in0.0 mm 0.00 in0.0 mm 0.00 in0.0 mm
01:10 AM 30.0°F-1.1°C 23.7°F-4.6°C 77% 4.0 mph WSW6.4 kmh WSW -- 29.70 in1005.8 mb 0.00 in0.0 mm 0.00 in0.0 mm 0.00 in0.0 mm
01:15 AM 29.8°F-1.2°C 23.2°F-4.9°C 76% 4.0 mph WSW6.4 kmh WSW -- 29.69 in1005.4 mb 0.00 in0.0 mm 0.00 in0.0 mm 0.00 in0.0 mm
01:20 AM 29.7°F-1.3°C 23.0°F-5.0°C 76% 4.0 mph SW6.4 kmh SW -- 29.69 in1005.4 mb 0.00 in0.0 mm 0.00 in0.0 mm 0.00 in0.0 mm
01:25 AM 29.8°F-1.2°C 23.5°F-4.7°C 77% 3.0 mph WSW4.8 kmh WSW 6.0 mph9.7 kmh 29.69 in1005.4 mb 0.00 in0.0 mm 0.00 in0.0 mm 0.00 in0.0 mm
01:30 AM 30.0°F-1.1°C 23.7°F-4.6°C 77% 3.0 mph S4.8 kmh S -- 29.69 in1005.4 mb 0.00 in0.0 mm 0.00 in0.0 mm 0.00 in0.0 mm
01:35 AM 30.2°F-1.0°C 23.5°F-4.7°C 76% 1.0 mph SW1.6 kmh SW -- 29.69 in1005.4 mb 0.00 in0.0 mm 0.00 in0.0 mm 0.00 in0.0 mm
01:40 AM 29.5°F-1.4°C 22.8°F-5.1°C 76% 2.0 mph SW3.2 kmh SW -- 29.68 in1005.1 mb 0.00 in0.0 mm 0.00 in0.0 mm 0.00 in0.0 mm
01:45 AM 29.4°F-1.4°C 23.2°F-4.9°C 77% 2.0 mph SW3.2 kmh SW -- 29.68 in1005.1 mb 0.00 in0.0 mm 0.00 in0.0 mm 0.00 in0.0 mm
01:50 AM 28.9°F-1.7°C 23.0°F-5.0°C 78% 3.0 mph SW4.8 kmh SW 5.0 mph8.0 kmh 29.68 in1005.1 mb 0.00 in0.0 mm 0.00 in0.0 mm 0.00 in0.0 mm
01:55 AM 28.5°F-1.9°C 22.3°F-5.4°C 77% 3.0 mph SW4.8 kmh SW -- 29.68 in1005.1 mb 0.00 in0.0 mm 0.00 in0.0 mm 0.00 in0.0 mm
02:00 AM 27.6°F-2.4°C 22.1°F-5.5°C 79% 4.0 mph WSW6.4 kmh WSW -- 29.68 in1005.1 mb 0.00 in0.0 mm 0.00 in0.0 mm 0.00 in0.0 mm
02:05 AM 27.6°F-2.4°C 22.3°F-5.4°C 80% 3.0 mph WSW4.8 kmh WSW -- 29.68 in1005.1 mb 0.00 in0.0 mm 0.00 in0.0 mm 0.00 in0.0 mm
02:10 AM 28.2°F-2.1°C 23.2°F-4.9°C 81% 3.0 mph WSW4.8 kmh WSW -- 29.68 in1005.1 mb 0.00 in0.0 mm 0.00 in0.0 mm 0.00 in0.0 mm
02:15 AM 29.2°F-1.6°C 23.7°F-4.6°C 80% 4.0 mph WSW6.4 kmh WSW 5.0 mph8.0 kmh 29.68 in1005.1 mb 0.00 in0.0 mm 0.00 in0.0 mm 0.00 in0.0 mm
02:20 AM 29.8°F-1.2°C 24.1°F-4.4°C 79% 5.0 mph WSW8.0 kmh WSW -- 29.68 in1005.1 mb 0.00 in0.0 mm 0.00 in0.0 mm 0.00 in0.0 mm
02:25 AM 29.9°F-1.2°C 23.9°F-4.5°C 78% 6.0 mph WSW9.7 kmh WSW -- 29.68 in1005.1 mb 0.00 in0.0 mm 0.00 in0.0 mm 0.00 in0.0 mm
02:30 AM 30.1°F-1.1°C 24.1°F-4.4°C 78% 4.0 mph WSW6.4 kmh WSW -- 29.67 in1004.7 mb 0.00 in0.0 mm 0.00 in0.0 mm 0.00 in0.0 mm
02:35 AM 30.1°F-1.1°C 23.7°F-4.6°C 77% 4.0 mph WSW6.4 kmh WSW -- 29.67 in1004.7 mb 0.00 in0.0 mm 0.00 in0.0 mm 0.00 in0.0 mm
02:40 AM 30.2°F-1.0°C 23.5°F-4.7°C 76% 3.0 mph SSW4.8 kmh SSW 7.0 mph11.3 kmh 29.67 in1004.7 mb 0.00 in0.0 mm 0.00 in0.0 mm 0.00 in0.0 mm
02:45 AM 30.2°F-1.0°C 23.5°F-4.7°C 76% 4.0 mph SW6.4 kmh SW -- 29.67 in1004.7 mb 0.00 in0.0 mm 0.00 in0.0 mm 0.00 in0.0 mm
02:50 AM 30.2°F-1.0°C 23.5°F-4.7°C 76% 3.0 mph SW4.8 kmh SW -- 29.66 in1004.4 mb 0.00 in0.0 mm 0.00 in0.0 mm 0.00 in0.0 mm
02:55 AM 30.2°F-1.0°C 23.5°F-4.7°C 76% 10.0 mph SW16.1 kmh SW -- 29.66 in1004.4 mb 0.00 in0.0 mm 0.00 in0.0 mm 0.00 in0.0 mm
03:00 AM 30.3°F-0.9°C 23.4°F-4.8°C 75% 4.0 mph WSW6.4 kmh WSW -- 29.66 in1004.4 mb 0.00 in0.0 mm 0.00 in0.0 mm 0.00 in0.0 mm
03:05 AM 30.4°F-0.9°C 23.4°F-4.8°C 75% 4.0 mph WSW6.4 kmh WSW 10.0 mph16.1 kmh 29.66 in1004.4 mb 0.00 in0.0 mm 0.00 in0.0 mm 0.00 in0.0 mm
03:10 AM 30.5°F-0.8°C 23.5°F-4.7°C 75% 6.0 mph WSW9.7 kmh WSW -- 29.66 in1004.4 mb 0.00 in0.0 mm 0.00 in0.0 mm 0.00 in0.0 mm
03:15 AM 30.5°F-0.8°C 23.5°F-4.7°C 75% 7.0 mph SW11.3 kmh SW -- 29.66 in1004.4 mb 0.00 in0.0 mm 0.00 in0.0 mm 0.00 in0.0 mm
03:20 AM 30.7°F-0.7°C 23.7°F-4.6°C 75% 8.0 mph WSW12.9 kmh WSW -- 29.66 in1004.4 mb 0.00 in0.0 mm 0.00 in0.0 mm 0.00 in0.0 mm
03:25 AM 30.6°F-0.8°C 23.4°F-4.8°C 74% 6.0 mph SSW9.7 kmh SSW -- 29.66 in1004.4 mb 0.00 in0.0 mm 0.00 in0.0 mm 0.00 in0.0 mm
03:30 AM 30.3°F-0.9°C 23.4°F-4.8°C 75% 4.0 mph SW6.4 kmh SW 9.0 mph14.5 kmh 29.66 in1004.4 mb 0.00 in0.0 mm 0.00 in0.0 mm 0.00 in0.0 mm
03:35 AM 30.5°F-0.8°C 23.5°F-4.7°C 75% 4.0 mph WSW6.4 kmh WSW -- 29.66 in1004.4 mb 0.00 in0.0 mm 0.00 in0.0 mm 0.00 in0.0 mm
03:40 AM 30.4°F-0.9°C 23.4°F-4.8°C 75% 6.0 mph WSW9.7 kmh WSW -- 29.66 in1004.4 mb 0.00 in0.0 mm 0.00 in0.0 mm 0.00 in0.0 mm
03:45 AM 30.5°F-0.8°C 23.9°F-4.5°C 76% 5.0 mph WSW8.0 kmh WSW -- 29.66 in1004.4 mb 0.00 in0.0 mm 0.00 in0.0 mm 0.00 in0.0 mm
03:50 AM 30.2°F-1.0°C 23.2°F-4.9°C 75% 3.0 mph SW4.8 kmh SW -- 29.66 in1004.4 mb 0.00 in0.0 mm 0.00 in0.0 mm 0.00 in0.0 mm
03:55 AM 29.6°F-1.3°C 23.0°F-5.0°C 76% 2.0 mph SW3.2 kmh SW 8.0 mph12.9 kmh 29.66 in1004.4 mb 0.00 in0.0 mm 0.00 in0.0 mm 0.00 in0.0 mm
04:00 AM 28.6°F-1.9°C 22.3°F-5.4°C 77% 3.0 mph SW4.8 kmh SW -- 29.66 in1004.4 mb 0.00 in0.0 mm 0.00 in0.0 mm 0.00 in0.0 mm
04:05 AM 29.0°F-1.7°C 23.0°F-5.0°C 78% 3.0 mph WSW4.8 kmh WSW -- 29.66 in1004.4 mb 0.00 in0.0 mm 0.00 in0.0 mm 0.00 in0.0 mm
04:10 AM 28.7°F-1.8°C 22.1°F-5.5°C 76% 5.0 mph WSW8.0 kmh WSW -- 29.65 in1004.1 mb 0.00 in0.0 mm 0.00 in0.0 mm 0.00 in0.0 mm
04:15 AM 28.7°F-1.8°C 22.8°F-5.1°C 78% 6.0 mph WSW9.7 kmh WSW -- 29.65 in1004.1 mb 0.00 in0.0 mm 0.00 in0.0 mm 0.00 in0.0 mm
04:20 AM 28.8°F-1.8°C 22.8°F-5.1°C 78% 5.0 mph WSW8.0 kmh WSW 7.0 mph11.3 kmh 29.65 in1004.1 mb 0.00 in0.0 mm 0.00 in0.0 mm 0.00 in0.0 mm
04:25 AM 29.9°F-1.2°C 23.9°F-4.5°C 78% 3.0 mph WSW4.8 kmh WSW -- 29.65 in1004.1 mb 0.00 in0.0 mm 0.00 in0.0 mm 0.00 in0.0 mm
04:30 AM 29.0°F-1.7°C 22.3°F-5.4°C 76% 4.0 mph WSW6.4 kmh WSW -- 29.65 in1004.1 mb 0.00 in0.0 mm 0.00 in0.0 mm 0.00 in0.0 mm
04:35 AM 27.4°F-2.6°C 21.0°F-6.1°C 77% 3.0 mph WSW4.8 kmh WSW -- 29.65 in1004.1 mb 0.00 in0.0 mm 0.00 in0.0 mm 0.00 in0.0 mm
04:40 AM 27.1°F-2.7°C 21.7°F-5.7°C 80% 4.0 mph WSW6.4 kmh WSW -- 29.65 in1004.1 mb 0.00 in0.0 mm 0.00 in0.0 mm 0.00 in0.0 mm
04:45 AM 27.6°F-2.4°C 22.3°F-5.4°C 80% 3.0 mph WSW4.8 kmh WSW 6.0 mph9.7 kmh 29.65 in1004.1 mb 0.00 in0.0 mm 0.00 in0.0 mm 0.00 in0.0 mm
04:50 AM 27.7°F-2.4°C 22.1°F-5.5°C 79% 2.0 mph SW3.2 kmh SW -- 29.64 in1003.7 mb 0.00 in0.0 mm 0.00 in0.0 mm 0.00 in0.0 mm
04:55 AM 28.1°F-2.2°C 22.6°F-5.2°C 80% 3.0 mph SW4.8 kmh SW -- 29.64 in1003.7 mb 0.00 in0.0 mm 0.00 in0.0 mm 0.00 in0.0 mm
05:00 AM 28.6°F-1.9°C 22.8°F-5.1°C 79% 2.0 mph SW3.2 kmh SW -- 29.64 in1003.7 mb 0.00 in0.0 mm 0.00 in0.0 mm 0.00 in0.0 mm
05:05 AM 29.0°F-1.7°C 23.2°F-4.9°C 79% 2.0 mph SSW3.2 kmh SSW -- 29.63 in1003.4 mb 0.00 in0.0 mm 0.00 in0.0 mm 0.00 in0.0 mm
05:10 AM 29.3°F-1.5°C 23.4°F-4.8°C 78% 4.0 mph SW6.4 kmh SW 8.0 mph12.9 kmh 29.63 in1003.4 mb 0.00 in0.0 mm 0.00 in0.0 mm 0.00 in0.0 mm
05:15 AM 29.6°F-1.3°C 23.4°F-4.8°C 77% 5.0 mph WSW8.0 kmh WSW -- 29.63 in1003.4 mb 0.00 in0.0 mm 0.00 in0.0 mm 0.00 in0.0 mm
05:20 AM 29.6°F-1.3°C 23.0°F-5.0°C 76% 5.0 mph SW8.0 kmh SW -- 29.63 in1003.4 mb 0.00 in0.0 mm 0.00 in0.0 mm 0.00 in0.0 mm
05:25 AM 30.0°F-1.1°C 23.4°F-4.8°C 76% 5.0 mph WSW8.0 kmh WSW -- 29.63 in1003.4 mb 0.00 in0.0 mm 0.00 in0.0 mm 0.00 in0.0 mm
05:30 AM 30.0°F-1.1°C 23.4°F-4.8°C 76% 3.0 mph SW4.8 kmh SW -- 29.63 in1003.4 mb 0.00 in0.0 mm 0.00 in0.0 mm 0.00 in0.0 mm
05:35 AM 29.9°F-1.2°C 23.2°F-4.9°C 76% 5.0 mph SW8.0 kmh SW 12.0 mph19.3 kmh 29.63 in1003.4 mb 0.00 in0.0 mm 0.00 in0.0 mm 0.00 in0.0 mm
05:40 AM 29.8°F-1.2°C 23.2°F-4.9°C 76% 9.0 mph SW14.5 kmh SW -- 29.62 in1003.0 mb 0.00 in0.0 mm 0.00 in0.0 mm 0.00 in0.0 mm
05:45 AM 30.0°F-1.1°C 23.4°F-4.8°C 76% 5.0 mph SW8.0 kmh SW -- 29.62 in1003.0 mb 0.00 in0.0 mm 0.00 in0.0 mm 0.00 in0.0 mm
05:50 AM 30.1°F-1.1°C 23.0°F-5.0°C 75% 6.0 mph S9.7 kmh S -- 29.62 in1003.0 mb 0.00 in0.0 mm 0.00 in0.0 mm 0.00 in0.0 mm
05:55 AM 30.1°F-1.1°C 23.4°F-4.8°C 76% 5.0 mph SW8.0 kmh SW -- 29.62 in1003.0 mb 0.00 in0.0 mm 0.00 in0.0 mm 0.00 in0.0 mm
06:00 AM 30.0°F-1.1°C 23.4°F-4.8°C 76% 6.0 mph S9.7 kmh S 11.0 mph17.7 kmh 29.62 in1003.0 mb 0.00 in0.0 mm 0.00 in0.0 mm 0.00 in0.0 mm
06:05 AM 29.8°F-1.2°C 23.5°F-4.7°C 77% 7.0 mph SSE11.3 kmh SSE -- 29.62 in1003.0 mb 0.00 in0.0 mm 0.00 in0.0 mm 0.00 in0.0 mm
06:10 AM 30.1°F-1.1°C 23.7°F-4.6°C 77% 6.0 mph S9.7 kmh S -- 29.61 in1002.7 mb 0.00 in0.0 mm 0.00 in0.0 mm 0.00 in0.0 mm
06:15 AM 29.7°F-1.3°C 23.4°F-4.8°C 77% 2.0 mph S3.2 kmh S -- 29.62 in1003.0 mb 0.00 in0.0 mm 0.00 in0.0 mm 0.00 in0.0 mm
06:20 AM 29.1°F-1.6°C 22.8°F-5.1°C 77% 2.0 mph WSW3.2 kmh WSW -- 29.61 in1002.7 mb 0.00 in0.0 mm 0.00 in0.0 mm 0.00 in0.0 mm
06:25 AM 28.2°F-2.1°C 22.3°F-5.4°C 78% 1.0 mph WSW1.6 kmh WSW 8.0 mph12.9 kmh 29.62 in1003.0 mb 0.00 in0.0 mm 0.00 in0.0 mm 0.00 in0.0 mm
06:30 AM 27.7°F-2.4°C 22.1°F-5.5°C 79% 2.0 mph WSW3.2 kmh WSW -- 29.61 in1002.7 mb 0.00 in0.0 mm 0.00 in0.0 mm 0.00 in0.0 mm
06:35 AM 27.0°F-2.8°C 21.4°F-5.9°C 79% 4.0 mph SSW6.4 kmh SSW -- 29.62 in1003.0 mb 0.00 in0.0 mm 0.00 in0.0 mm 0.00 in0.0 mm
06:40 AM 26.5°F-3.1°C 21.0°F-6.1°C 80% 2.0 mph SW3.2 kmh SW -- 29.61 in1002.7 mb 0.00 in0.0 mm 0.00 in0.0 mm 0.00 in0.0 mm
06:45 AM 26.9°F-2.8°C 22.3°F-5.4°C 82% 4.0 mph WSW6.4 kmh WSW -- 29.61 in1002.7 mb 0.00 in0.0 mm 0.00 in0.0 mm 0.00 in0.0 mm
06:50 AM 27.0°F-2.8°C 21.9°F-5.6°C 81% 2.0 mph WSW3.2 kmh WSW 4.0 mph6.4 kmh 29.61 in1002.7 mb 0.00 in0.0 mm 0.00 in0.0 mm 0.00 in0.0 mm
06:55 AM 27.0°F-2.8°C 21.9°F-5.6°C 81% 3.0 mph SW4.8 kmh SW -- 29.61 in1002.7 mb 0.00 in0.0 mm 0.00 in0.0 mm 0.00 in0.0 mm
07:00 AM 26.9°F-2.8°C 21.9°F-5.6°C 81% 3.0 mph WSW4.8 kmh WSW -- 29.61 in1002.7 mb 0.00 in0.0 mm 0.00 in0.0 mm 0.00 in0.0 mm
07:05 AM 27.8°F-2.3°C 22.8°F-5.1°C 81% 4.0 mph SW6.4 kmh SW -- 29.61 in1002.7 mb 0.00 in0.0 mm 0.00 in0.0 mm 0.00 in0.0 mm
07:10 AM 27.9°F-2.3°C 22.3°F-5.4°C 79% 3.0 mph WSW4.8 kmh WSW -- 29.61 in1002.7 mb 0.00 in0.0 mm 0.00 in0.0 mm 0.00 in0.0 mm
07:15 AM 27.9°F-2.3°C 22.5°F-5.3°C 80% 4.0 mph WSW6.4 kmh WSW 6.0 mph9.7 kmh 29.60 in1002.4 mb 0.00 in0.0 mm 0.00 in0.0 mm 0.00 in0.0 mm
07:20 AM 27.7°F-2.4°C 22.1°F-5.5°C 79% 4.0 mph SW6.4 kmh SW -- 29.60 in1002.4 mb 0.00 in0.0 mm 0.00 in0.0 mm 0.00 in0.0 mm
07:25 AM 28.3°F-2.1°C 22.6°F-5.2°C 79% 3.0 mph SW4.8 kmh SW -- 29.60 in1002.4 mb 0.00 in0.0 mm 0.00 in0.0 mm 0.00 in0.0 mm
07:30 AM 28.5°F-1.9°C 22.6°F-5.2°C 78% 4.0 mph SW6.4 kmh SW -- 29.60 in1002.4 mb 0.00 in0.0 mm 0.00 in0.0 mm 0.00 in0.0 mm
07:35 AM 28.5°F-1.9°C 22.6°F-5.2°C 78% 4.0 mph SW6.4 kmh SW -- 29.60 in1002.4 mb 0.00 in0.0 mm 0.00 in0.0 mm 0.00 in0.0 mm
07:40 AM 28.7°F-1.8°C 22.8°F-5.1°C 78% 3.0 mph SW4.8 kmh SW 7.0 mph11.3 kmh 29.60 in1002.4 mb 0.00 in0.0 mm 0.00 in0.0 mm 0.00 in0.0 mm
07:45 AM 28.5°F-1.9°C 22.8°F-5.1°C 79% 2.0 mph WSW3.2 kmh WSW -- 29.60 in1002.4 mb 0.00 in0.0 mm 0.00 in0.0 mm 0.00 in0.0 mm
07:50 AM 28.5°F-1.9°C 22.8°F-5.1°C 79% 3.0 mph SSW4.8 kmh SSW -- 29.60 in1002.4 mb 0.00 in0.0 mm 0.00 in0.0 mm 0.00 in0.0 mm
07:55 AM 27.9°F-2.3°C 22.3°F-5.4°C 79% 3.0 mph SW4.8 kmh SW -- 29.60 in1002.4 mb 0.00 in0.0 mm 0.00 in0.0 mm 0.00 in0.0 mm
08:00 AM 27.6°F-2.4°C 22.3°F-5.4°C 80% 3.0 mph SW4.8 kmh SW -- 29.60 in1002.4 mb 0.00 in0.0 mm 0.00 in0.0 mm 0.00 in0.0 mm
08:05 AM 26.8°F-2.9°C 21.4°F-5.9°C 80% 3.0 mph SW4.8 kmh SW 4.0 mph6.4 kmh 29.60 in1002.4 mb 0.00 in0.0 mm 0.00 in0.0 mm 0.00 in0.0 mm
08:10 AM 26.2°F-3.2°C 21.2°F-6.0°C 81% 2.0 mph WSW3.2 kmh WSW -- 29.60 in1002.4 mb 0.00 in0.0 mm 0.00 in0.0 mm 0.00 in0.0 mm
08:15 AM 25.9°F-3.4°C 20.8°F-6.2°C 81% 5.0 mph SW8.0 kmh SW -- 29.60 in1002.4 mb 0.00 in0.0 mm 0.00 in0.0 mm 0.00 in0.0 mm
08:20 AM 25.7°F-3.5°C 21.0°F-6.1°C 82% 3.0 mph WSW4.8 kmh WSW -- 29.59 in1002.0 mb 0.00 in0.0 mm 0.00 in0.0 mm 0.00 in0.0 mm
08:25 AM 25.5°F-3.6°C 21.0°F-6.1°C 83% 2.0 mph WSW3.2 kmh WSW -- 29.59 in1002.0 mb 0.00 in0.0 mm 0.00 in0.0 mm 0.00 in0.0 mm
08:30 AM 25.5°F-3.6°C 21.4°F-5.9°C 84% 4.0 mph WSW6.4 kmh WSW 5.0 mph8.0 kmh 29.59 in1002.0 mb 0.00 in0.0 mm 0.00 in0.0 mm 0.00 in0.0 mm
08:35 AM 25.9°F-3.4°C 21.4°F-5.9°C 83% 2.0 mph SW3.2 kmh SW -- 29.59 in1002.0 mb 0.00 in0.0 mm 0.00 in0.0 mm 0.00 in0.0 mm
08:40 AM 26.2°F-3.2°C 22.1°F-5.5°C 84% 3.0 mph WSW4.8 kmh WSW -- 29.59 in1002.0 mb 0.00 in0.0 mm 0.00 in0.0 mm 0.00 in0.0 mm
08:45 AM 26.6°F-3.0°C 22.1°F-5.5°C 83% 4.0 mph WSW6.4 kmh WSW -- 29.59 in1002.0 mb 0.00 in0.0 mm 0.00 in0.0 mm 0.00 in0.0 mm
08:50 AM 28.3°F-2.1°C 23.4°F-4.8°C 82% 5.0 mph WSW8.0 kmh WSW -- 29.59 in1002.0 mb 0.00 in0.0 mm 0.00 in0.0 mm 0.00 in0.0 mm
08:55 AM 29.5°F-1.4°C 23.5°F-4.7°C 78% 8.0 mph WSW12.9 kmh WSW 10.0 mph16.1 kmh 29.59 in1002.0 mb 0.00 in0.0 mm 0.00 in0.0 mm 0.00 in0.0 mm
09:00 AM 30.1°F-1.1°C 23.7°F-4.6°C 77% 7.0 mph WSW11.3 kmh WSW -- 29.59 in1002.0 mb 0.00 in0.0 mm 0.00 in0.0 mm 0.00 in0.0 mm
09:05 AM 30.1°F-1.1°C 23.4°F-4.8°C 76% 4.0 mph SW6.4 kmh SW -- 29.59 in1002.0 mb 0.00 in0.0 mm 0.00 in0.0 mm 0.00 in0.0 mm
09:10 AM 29.9°F-1.2°C 23.5°F-4.7°C 77% 4.0 mph SW6.4 kmh SW -- 29.58 in1001.7 mb 0.00 in0.0 mm 0.00 in0.0 mm 0.00 in0.0 mm
09:15 AM 30.0°F-1.1°C 23.7°F-4.6°C 77% 7.0 mph WSW11.3 kmh WSW -- 29.58 in1001.7 mb 0.00 in0.0 mm 0.00 in0.0 mm 0.00 in0.0 mm
09:20 AM 30.2°F-1.0°C 23.5°F-4.7°C 76% 5.0 mph WSW8.0 kmh WSW 9.0 mph14.5 kmh 29.58 in1001.7 mb 0.00 in0.0 mm 0.00 in0.0 mm 0.00 in0.0 mm
09:25 AM 30.0°F-1.1°C 23.4°F-4.8°C 76% 5.0 mph WSW8.0 kmh WSW -- 29.59 in1002.0 mb 0.00 in0.0 mm 0.00 in0.0 mm 0.00 in0.0 mm
09:30 AM 30.0°F-1.1°C 23.4°F-4.8°C 76% 4.0 mph SW6.4 kmh SW -- 29.59 in1002.0 mb 0.00 in0.0 mm 0.00 in0.0 mm 0.00 in0.0 mm
09:35 AM 29.9°F-1.2°C 23.2°F-4.9°C 76% 3.0 mph WSW4.8 kmh WSW -- 29.59 in1002.0 mb 0.00 in0.0 mm 0.00 in0.0 mm 0.00 in0.0 mm
09:40 AM 29.4°F-1.4°C 22.8°F-5.1°C 76% 4.0 mph SW6.4 kmh SW -- 29.59 in1002.0 mb 0.00 in0.0 mm 0.00 in0.0 mm 0.00 in0.0 mm
09:45 AM 28.7°F-1.8°C 22.5°F-5.3°C 77% 2.0 mph SW3.2 kmh SW 6.0 mph9.7 kmh 29.59 in1002.0 mb 0.00 in0.0 mm 0.00 in0.0 mm 0.00 in0.0 mm
09:50 AM 28.1°F-2.2°C 21.7°F-5.7°C 77% 3.0 mph SW4.8 kmh SW -- 29.58 in1001.7 mb 0.00 in0.0 mm 0.00 in0.0 mm 0.00 in0.0 mm
09:55 AM 26.7°F-2.9°C 20.8°F-6.2°C 78% 4.0 mph WSW6.4 kmh WSW -- 29.59 in1002.0 mb 0.00 in0.0 mm 0.00 in0.0 mm 0.00 in0.0 mm
10:00 AM 27.0°F-2.8°C 21.6°F-5.8°C 80% 3.0 mph WSW4.8 kmh WSW -- 29.58 in1001.7 mb 0.00 in0.0 mm 0.00 in0.0 mm 0.00 in0.0 mm
10:05 AM 26.8°F-2.9°C 21.4°F-5.9°C 80% 3.0 mph WSW4.8 kmh WSW -- 29.58 in1001.7 mb 0.00 in0.0 mm 0.00 in0.0 mm 0.00 in0.0 mm
10:10 AM 26.5°F-3.1°C 21.0°F-6.1°C 80% 4.0 mph WSW6.4 kmh WSW 6.0 mph9.7 kmh 29.58 in1001.7 mb 0.00 in0.0 mm 0.00 in0.0 mm 0.00 in0.0 mm
10:15 AM 26.4°F-3.1°C 21.7°F-5.7°C 82% 1.0 mph SW1.6 kmh SW -- 29.58 in1001.7 mb 0.00 in0.0 mm 0.00 in0.0 mm 0.00 in0.0 mm
10:20 AM 26.4°F-3.1°C 21.4°F-5.9°C 81% 3.0 mph WSW4.8 kmh WSW -- 29.58 in1001.7 mb 0.00 in0.0 mm 0.00 in0.0 mm 0.00 in0.0 mm
10:25 AM 26.6°F-3.0°C 21.9°F-5.6°C 82% 3.0 mph SW4.8 kmh SW -- 29.58 in1001.7 mb 0.00 in0.0 mm 0.00 in0.0 mm 0.00 in0.0 mm
10:30 AM 26.2°F-3.2°C 21.6°F-5.8°C 82% 3.0 mph SW4.8 kmh SW -- 29.57 in1001.4 mb 0.00 in0.0 mm 0.00 in0.0 mm 0.00 in0.0 mm
10:35 AM 25.3°F-3.7°C 20.7°F-6.3°C 82% 2.0 mph WSW3.2 kmh WSW 7.0 mph11.3 kmh 29.57 in1001.4 mb 0.00 in0.0 mm 0.00 in0.0 mm 0.00 in0.0 mm
10:40 AM 25.8°F-3.4°C 21.7°F-5.7°C 84% 3.0 mph WSW4.8 kmh WSW -- 29.57 in1001.4 mb 0.00 in0.0 mm 0.00 in0.0 mm 0.00 in0.0 mm
10:45 AM 26.9°F-2.8°C 22.8°F-5.1°C 84% 4.0 mph WSW6.4 kmh WSW -- 29.57 in1001.4 mb 0.00 in0.0 mm 0.00 in0.0 mm 0.00 in0.0 mm
10:50 AM 27.7°F-2.4°C 22.6°F-5.2°C 81% 4.0 mph WSW6.4 kmh WSW -- 29.57 in1001.4 mb 0.00 in0.0 mm 0.00 in0.0 mm 0.00 in0.0 mm
10:55 AM 27.4°F-2.6°C 22.3°F-5.4°C 81% 4.0 mph WSW6.4 kmh WSW -- 29.57 in1001.4 mb 0.00 in0.0 mm 0.00 in0.0 mm 0.00 in0.0 mm
11:00 AM 27.7°F-2.4°C 22.6°F-5.2°C 81% 4.0 mph SW6.4 kmh SW 7.0 mph11.3 kmh 29.57 in1001.4 mb 0.00 in0.0 mm 0.00 in0.0 mm 0.00 in0.0 mm
11:05 AM 27.9°F-2.3°C 22.5°F-5.3°C 80% 4.0 mph SW6.4 kmh SW -- 29.57 in1001.4 mb 0.00 in0.0 mm 0.00 in0.0 mm 0.00 in0.0 mm
11:10 AM 28.3°F-2.1°C 22.6°F-5.2°C 79% 2.0 mph SW3.2 kmh SW -- 29.57 in1001.4 mb 0.00 in0.0 mm 0.00 in0.0 mm 0.00 in0.0 mm
11:15 AM 28.9°F-1.7°C 23.0°F-5.0°C 78% 4.0 mph WSW6.4 kmh WSW -- 29.56 in1001.0 mb 0.00 in0.0 mm 0.00 in0.0 mm 0.00 in0.0 mm
11:20 AM 29.4°F-1.4°C 23.5°F-4.7°C 78% 6.0 mph SW9.7 kmh SW -- 29.56 in1001.0 mb 0.00 in0.0 mm 0.00 in0.0 mm 0.00 in0.0 mm
11:25 AM 29.7°F-1.3°C 23.4°F-4.8°C 77% 5.0 mph WSW8.0 kmh WSW 7.0 mph11.3 kmh 29.57 in1001.4 mb 0.00 in0.0 mm 0.00 in0.0 mm 0.00 in0.0 mm
11:30 AM 29.8°F-1.2°C 23.5°F-4.7°C 77% 4.0 mph SW6.4 kmh SW -- 29.56 in1001.0 mb 0.00 in0.0 mm 0.00 in0.0 mm 0.00 in0.0 mm
11:35 AM 29.6°F-1.3°C 23.0°F-5.0°C 76% 4.0 mph WSW6.4 kmh WSW -- 29.56 in1001.0 mb 0.00 in0.0 mm 0.00 in0.0 mm 0.00 in0.0 mm
11:40 AM 29.4°F-1.4°C 22.8°F-5.1°C 76% 5.0 mph WSW8.0 kmh WSW -- 29.56 in1001.0 mb 0.00 in0.0 mm 0.00 in0.0 mm 0.00 in0.0 mm
11:45 AM 29.1°F-1.6°C 22.5°F-5.3°C 76% 3.0 mph WSW4.8 kmh WSW -- 29.56 in1001.0 mb 0.00 in0.0 mm 0.00 in0.0 mm 0.00 in0.0 mm
11:50 AM 29.0°F-1.7°C 22.6°F-5.2°C 77% 1.0 mph SW1.6 kmh SW 6.0 mph9.7 kmh 29.56 in1001.0 mb 0.00 in0.0 mm 0.00 in0.0 mm 0.00 in0.0 mm
11:55 AM 28.9°F-1.7°C 22.6°F-5.2°C 77% 4.0 mph WSW6.4 kmh WSW -- 29.56 in1001.0 mb 0.00 in0.0 mm 0.00 in0.0 mm 0.00 in0.0 mm
12:00 PM 29.5°F-1.4°C 22.8°F-5.1°C 76% 4.0 mph SW6.4 kmh SW -- 29.56 in1001.0 mb 0.00 in0.0 mm 0.00 in0.0 mm 0.00 in0.0 mm
12:05 PM 29.6°F-1.3°C 23.0°F-5.0°C 76% 3.0 mph WSW4.8 kmh WSW -- 29.55 in1000.7 mb 0.00 in0.0 mm 0.00 in0.0 mm 0.00 in0.0 mm
12:10 PM 29.2°F-1.6°C 22.3°F-5.4°C 75% 3.0 mph WSW4.8 kmh WSW 7.0 mph11.3 kmh 29.55 in1000.7 mb 0.00 in0.0 mm 0.00 in0.0 mm 0.00 in0.0 mm
12:15 PM 28.3°F-2.1°C 21.6°F-5.8°C 76% 2.0 mph WSW3.2 kmh WSW -- 29.55 in1000.7 mb 0.00 in0.0 mm 0.00 in0.0 mm 0.00 in0.0 mm
12:20 PM 27.9°F-2.3°C 21.6°F-5.8°C 77% 2.0 mph SW3.2 kmh SW -- 29.55 in1000.7 mb 0.00 in0.0 mm 0.00 in0.0 mm 0.00 in0.0 mm
12:25 PM 28.7°F-1.8°C 23.0°F-5.0°C 79% 3.0 mph WSW4.8 kmh WSW -- 29.55 in1000.7 mb 0.00 in0.0 mm 0.00 in0.0 mm 0.00 in0.0 mm
12:30 PM 29.4°F-1.4°C 23.2°F-4.9°C 77% 6.0 mph WSW9.7 kmh WSW -- 29.55 in1000.7 mb 0.00 in0.0 mm 0.00 in0.0 mm 0.00 in0.0 mm
12:35 PM 29.7°F-1.3°C 23.0°F-5.0°C 76% 3.0 mph SW4.8 kmh SW 7.0 mph11.3 kmh 29.55 in1000.7 mb 0.00 in0.0 mm 0.00 in0.0 mm 0.00 in0.0 mm
12:40 PM 29.3°F-1.5°C 22.6°F-5.2°C 76% 4.0 mph WSW6.4 kmh WSW -- 29.55 in1000.7 mb 0.00 in0.0 mm 0.00 in0.0 mm 0.00 in0.0 mm
12:45 PM 28.9°F-1.7°C 22.3°F-5.4°C 76% 4.0 mph WSW6.4 kmh WSW -- 29.55 in1000.7 mb 0.00 in0.0 mm 0.00 in0.0 mm 0.00 in0.0 mm
12:50 PM 28.4°F-2.0°C 22.1°F-5.5°C 77% 6.0 mph WSW9.7 kmh WSW -- 29.55 in1000.7 mb 0.00 in0.0 mm 0.00 in0.0 mm 0.00 in0.0 mm
12:55 PM 28.0°F-2.2°C 21.7°F-5.7°C 77% 2.0 mph SSW3.2 kmh SSW -- 29.55 in1000.7 mb 0.00 in0.0 mm 0.00 in0.0 mm 0.00 in0.0 mm
01:00 PM 27.2°F-2.7°C 21.2°F-6.0°C 78% 4.0 mph WSW6.4 kmh WSW 6.0 mph9.7 kmh 29.55 in1000.7 mb 0.00 in0.0 mm 0.00 in0.0 mm 0.00 in0.0 mm
01:05 PM 27.0°F-2.8°C 21.0°F-6.1°C 78% 5.0 mph WSW8.0 kmh WSW -- 29.55 in1000.7 mb 0.00 in0.0 mm 0.00 in0.0 mm 0.00 in0.0 mm
01:10 PM 27.4°F-2.6°C 21.9°F-5.6°C 80% 2.0 mph WSW3.2 kmh WSW -- 29.55 in1000.7 mb 0.00 in0.0 mm 0.00 in0.0 mm 0.00 in0.0 mm
01:15 PM 27.1°F-2.7°C 20.8°F-6.2°C 77% 4.0 mph WSW6.4 kmh WSW -- 29.55 in1000.7 mb 0.00 in0.0 mm 0.00 in0.0 mm 0.00 in0.0 mm
01:20 PM 26.5°F-3.1°C 20.8°F-6.2°C 79% 4.0 mph WSW6.4 kmh WSW -- 29.55 in1000.7 mb 0.00 in0.0 mm 0.00 in0.0 mm 0.00 in0.0 mm
01:25 PM 25.8°F-3.4°C 20.7°F-6.3°C 80% 4.0 mph WSW6.4 kmh WSW 6.0 mph9.7 kmh 29.55 in1000.7 mb 0.00 in0.0 mm 0.00 in0.0 mm 0.00 in0.0 mm
01:30 PM 25.6°F-3.6°C 20.5°F-6.4°C 81% 3.0 mph SW4.8 kmh SW -- 29.55 in1000.7 mb 0.00 in0.0 mm 0.00 in0.0 mm 0.00 in0.0 mm
01:35 PM 25.2°F-3.8°C 20.5°F-6.4°C 82% 5.0 mph WSW8.0 kmh WSW -- 29.54 in1000.3 mb 0.00 in0.0 mm 0.00 in0.0 mm 0.00 in0.0 mm
01:40 PM 25.1°F-3.8°C 20.5°F-6.4°C 82% 6.0 mph WSW9.7 kmh WSW -- 29.54 in1000.3 mb 0.00 in0.0 mm 0.00 in0.0 mm 0.00 in0.0 mm
01:45 PM 25.4°F-3.7°C 21.2°F-6.0°C 84% 5.0 mph WSW8.0 kmh WSW -- 29.54 in1000.3 mb 0.00 in0.0 mm 0.00 in0.0 mm 0.00 in0.0 mm
01:50 PM 25.1°F-3.8°C 20.7°F-6.3°C 83% 5.0 mph WSW8.0 kmh WSW 8.0 mph12.9 kmh 29.54 in1000.3 mb 0.00 in0.0 mm 0.00 in0.0 mm 0.00 in0.0 mm
01:55 PM 25.5°F-3.6°C 21.0°F-6.1°C 83% 5.0 mph SW8.0 kmh SW -- 29.54 in1000.3 mb 0.00 in0.0 mm 0.00 in0.0 mm 0.00 in0.0 mm
02:00 PM 26.1°F-3.3°C 21.6°F-5.8°C 83% 5.0 mph WSW8.0 kmh WSW -- 29.54 in1000.3 mb 0.00 in0.0 mm 0.00 in0.0 mm 0.00 in0.0 mm
02:05 PM 26.6°F-3.0°C 21.6°F-5.8°C 81% 5.0 mph SW8.0 kmh SW -- 29.54 in1000.3 mb 0.00 in0.0 mm 0.00 in0.0 mm 0.00 in0.0 mm
02:10 PM 27.1°F-2.7°C 22.1°F-5.5°C 81% 2.0 mph WSW3.2 kmh WSW -- 29.54 in1000.3 mb 0.00 in0.0 mm 0.00 in0.0 mm 0.00 in0.0 mm
02:15 PM 26.9°F-2.8°C 21.6°F-5.8°C 80% 1.0 mph WSW1.6 kmh WSW 5.0 mph8.0 kmh 29.54 in1000.3 mb 0.00 in0.0 mm 0.00 in0.0 mm 0.00 in0.0 mm
02:20 PM 26.5°F-3.1°C 21.0°F-6.1°C 80% 2.0 mph WSW3.2 kmh WSW -- 29.53 in1000.0 mb 0.00 in0.0 mm 0.00 in0.0 mm 0.00 in0.0 mm
02:25 PM 26.3°F-3.2°C 20.8°F-6.2°C 80% 2.0 mph WSW3.2 kmh WSW -- 29.54 in1000.3 mb 0.00 in0.0 mm 0.00 in0.0 mm 0.00 in0.0 mm
02:30 PM 26.0°F-3.3°C 20.8°F-6.2°C 80% Calm Calm -- 29.54 in1000.3 mb 0.00 in0.0 mm 0.00 in0.0 mm 0.00 in0.0 mm
02:35 PM 25.4°F-3.7°C 20.1°F-6.6°C 80% 3.0 mph WSW4.8 kmh WSW -- 29.53 in1000.0 mb 0.00 in0.0 mm 0.00 in0.0 mm 0.00 in0.0 mm
02:40 PM 24.6°F-4.1°C 20.1°F-6.6°C 83% 4.0 mph WSW6.4 kmh WSW 7.0 mph11.3 kmh 29.54 in1000.3 mb 0.00 in0.0 mm 0.00 in0.0 mm 0.00 in0.0 mm
02:45 PM 24.9°F-3.9°C 21.2°F-6.0°C 85% 7.0 mph WSW11.3 kmh WSW -- 29.53 in1000.0 mb 0.00 in0.0 mm 0.00 in0.0 mm 0.00 in0.0 mm
02:50 PM 24.7°F-4.1°C 20.5°F-6.4°C 84% 5.0 mph WSW8.0 kmh WSW -- 29.53 in1000.0 mb 0.00 in0.0 mm 0.00 in0.0 mm 0.00 in0.0 mm
02:55 PM 25.4°F-3.7°C 21.2°F-6.0°C 84% 4.0 mph WSW6.4 kmh WSW -- 29.53 in1000.0 mb 0.00 in0.0 mm 0.00 in0.0 mm 0.00 in0.0 mm
03:00 PM 25.5°F-3.6°C 21.0°F-6.1°C 83% 6.0 mph WSW9.7 kmh WSW -- 29.54 in1000.3 mb 0.00 in0.0 mm 0.00 in0.0 mm 0.00 in0.0 mm
03:05 PM 25.4°F-3.7°C 21.2°F-6.0°C 84% 4.0 mph WSW6.4 kmh WSW 8.0 mph12.9 kmh 29.53 in1000.0 mb 0.00 in0.0 mm 0.00 in0.0 mm 0.00 in0.0 mm
03:10 PM 25.3°F-3.7°C 20.8°F-6.2°C 83% 7.0 mph WSW11.3 kmh WSW -- 29.53 in1000.0 mb 0.00 in0.0 mm 0.00 in0.0 mm 0.00 in0.0 mm
03:15 PM 25.0°F-3.9°C 20.5°F-6.4°C 83% 5.0 mph SW8.0 kmh SW -- 29.53 in1000.0 mb 0.00 in0.0 mm 0.00 in0.0 mm 0.00 in0.0 mm
03:20 PM 25.6°F-3.6°C 21.4°F-5.9°C 84% 3.0 mph SW4.8 kmh SW -- 29.54 in1000.3 mb 0.00 in0.0 mm 0.00 in0.0 mm 0.00 in0.0 mm
03:25 PM 26.0°F-3.3°C 21.6°F-5.8°C 83% 4.0 mph WSW6.4 kmh WSW -- 29.53 in1000.0 mb 0.00 in0.0 mm 0.00 in0.0 mm 0.00 in0.0 mm
03:30 PM 26.1°F-3.3°C 21.6°F-5.8°C 83% 4.0 mph SW6.4 kmh SW 7.0 mph11.3 kmh 29.54 in1000.3 mb 0.00 in0.0 mm 0.00 in0.0 mm 0.00 in0.0 mm
03:35 PM 26.3°F-3.2°C 21.6°F-5.8°C 82% 4.0 mph SW6.4 kmh SW -- 29.54 in1000.3 mb 0.00 in0.0 mm 0.00 in0.0 mm 0.00 in0.0 mm
03:40 PM 26.3°F-3.2°C 21.7°F-5.7°C 83% 4.0 mph SW6.4 kmh SW -- 29.54 in1000.3 mb 0.00 in0.0 mm 0.00 in0.0 mm 0.00 in0.0 mm
03:45 PM 26.5°F-3.1°C 21.7°F-5.7°C 82% 6.0 mph SW9.7 kmh SW -- 29.54 in1000.3 mb 0.00 in0.0 mm 0.00 in0.0 mm 0.00 in0.0 mm
03:50 PM 26.6°F-3.0°C 21.9°F-5.6°C 82% 5.0 mph SW8.0 kmh SW -- 29.54 in1000.3 mb 0.00 in0.0 mm 0.00 in0.0 mm 0.00 in0.0 mm
03:55 PM 26.7°F-2.9°C 22.1°F-5.5°C 82% 6.0 mph WSW9.7 kmh WSW 6.0 mph9.7 kmh 29.54 in1000.3 mb 0.00 in0.0 mm 0.00 in0.0 mm 0.00 in0.0 mm
04:00 PM 26.6°F-3.0°C 21.9°F-5.6°C 82% 5.0 mph WSW8.0 kmh WSW -- 29.54 in1000.3 mb 0.00 in0.0 mm 0.00 in0.0 mm 0.00 in0.0 mm
04:05 PM 27.8°F-2.3°C 23.2°F-4.9°C 82% 5.0 mph WSW8.0 kmh WSW -- 29.54 in1000.3 mb 0.00 in0.0 mm 0.00 in0.0 mm 0.00 in0.0 mm
04:10 PM 27.6°F-2.4°C 22.3°F-5.4°C 80% 4.0 mph WSW6.4 kmh WSW -- 29.54 in1000.3 mb 0.00 in0.0 mm 0.00 in0.0 mm 0.00 in0.0 mm
04:15 PM 27.2°F-2.7°C 21.7°F-5.7°C 80% 5.0 mph WSW8.0 kmh WSW -- 29.54 in1000.3 mb 0.00 in0.0 mm 0.00 in0.0 mm 0.00 in0.0 mm
04:20 PM 27.2°F-2.7°C 22.1°F-5.5°C 81% 5.0 mph WSW8.0 kmh WSW 6.0 mph9.7 kmh 29.53 in1000.0 mb 0.00 in0.0 mm 0.00 in0.0 mm 0.00 in0.0 mm
04:25 PM 27.4°F-2.6°C 22.3°F-5.4°C 81% 3.0 mph WSW4.8 kmh WSW -- 29.53 in1000.0 mb 0.00 in0.0 mm 0.00 in0.0 mm 0.00 in0.0 mm
04:30 PM 28.0°F-2.2°C 23.0°F-5.0°C 81% 2.0 mph WSW3.2 kmh WSW -- 29.53 in1000.0 mb 0.00 in0.0 mm 0.00 in0.0 mm 0.00 in0.0 mm
04:35 PM 27.8°F-2.3°C 22.3°F-5.4°C 79% 2.0 mph WSW3.2 kmh WSW -- 29.54 in1000.3 mb 0.00 in0.0 mm 0.00 in0.0 mm 0.00 in0.0 mm
04:40 PM 28.1°F-2.2°C 23.0°F-5.0°C 81% 2.0 mph WSW3.2 kmh WSW -- 29.54 in1000.3 mb 0.00 in0.0 mm 0.00 in0.0 mm 0.00 in0.0 mm
04:45 PM 27.8°F-2.3°C 22.3°F-5.4°C 79% 2.0 mph SSW3.2 kmh SSW 6.0 mph9.7 kmh 29.54 in1000.3 mb 0.00 in0.0 mm 0.00 in0.0 mm 0.00 in0.0 mm
04:50 PM 28.1°F-2.2°C 22.6°F-5.2°C 80% 4.0 mph SW6.4 kmh SW -- 29.54 in1000.3 mb 0.00 in0.0 mm 0.00 in0.0 mm 0.00 in0.0 mm
04:55 PM 28.2°F-2.1°C 22.8°F-5.1°C 80% 2.0 mph WSW3.2 kmh WSW -- 29.53 in1000.0 mb 0.00 in0.0 mm 0.00 in0.0 mm 0.00 in0.0 mm
05:00 PM 28.3°F-2.1°C 22.8°F-5.1°C 80% 4.0 mph WSW6.4 kmh WSW -- 29.53 in1000.0 mb 0.00 in0.0 mm 0.00 in0.0 mm 0.00 in0.0 mm
05:05 PM 28.0°F-2.2°C 22.5°F-5.3°C 79% 5.0 mph SW8.0 kmh SW -- 29.54 in1000.3 mb 0.00 in0.0 mm 0.00 in0.0 mm 0.00 in0.0 mm
05:10 PM 26.5°F-3.1°C 20.5°F-6.4°C 78% Calm Calm 6.0 mph9.7 kmh 29.53 in1000.0 mb 0.00 in0.0 mm 0.00 in0.0 mm 0.00 in0.0 mm
05:15 PM 25.6°F-3.6°C 20.3°F-6.5°C 80% Calm Calm -- 29.53 in1000.0 mb 0.00 in0.0 mm 0.00 in0.0 mm 0.00 in0.0 mm
05:20 PM 25.4°F-3.7°C 20.7°F-6.3°C 82% 2.0 mph SW3.2 kmh SW -- 29.54 in1000.3 mb 0.00 in0.0 mm 0.00 in0.0 mm 0.00 in0.0 mm
05:25 PM 26.2°F-3.2°C 22.1°F-5.5°C 84% 2.0 mph W3.2 kmh W -- 29.54 in1000.3 mb 0.00 in0.0 mm 0.00 in0.0 mm 0.00 in0.0 mm
05:30 PM 26.1°F-3.3°C 21.4°F-5.9°C 82% 4.0 mph SW6.4 kmh SW -- 29.54 in1000.3 mb 0.00 in0.0 mm 0.00 in0.0 mm 0.00 in0.0 mm
05:35 PM 24.5°F-4.2°C 19.8°F-6.8°C 82% 5.0 mph WSW8.0 kmh WSW 7.0 mph11.3 kmh 29.54 in1000.3 mb 0.00 in0.0 mm 0.00 in0.0 mm 0.00 in0.0 mm
05:40 PM 24.4°F-4.2°C 20.3°F-6.5°C 84% 2.0 mph WSW3.2 kmh WSW -- 29.54 in1000.3 mb 0.00 in0.0 mm 0.00 in0.0 mm 0.00 in0.0 mm
05:45 PM 24.7°F-4.1°C 21.0°F-6.1°C 86% 3.0 mph WSW4.8 kmh WSW -- 29.54 in1000.3 mb 0.00 in0.0 mm 0.00 in0.0 mm 0.00 in0.0 mm
05:50 PM 24.5°F-4.2°C 20.7°F-6.3°C 85% 6.0 mph WSW9.7 kmh WSW -- 29.54 in1000.3 mb 0.00 in0.0 mm 0.00 in0.0 mm 0.00 in0.0 mm
05:55 PM 24.3°F-4.3°C 20.7°F-6.3°C 86% 3.0 mph WSW4.8 kmh WSW -- 29.54 in1000.3 mb 0.00 in0.0 mm 0.00 in0.0 mm 0.00 in0.0 mm
06:00 PM 23.9°F-4.5°C 20.3°F-6.5°C 86% 3.0 mph WSW4.8 kmh WSW 7.0 mph11.3 kmh 29.54 in1000.3 mb 0.00 in0.0 mm 0.00 in0.0 mm 0.00 in0.0 mm
06:05 PM 24.4°F-4.2°C 20.8°F-6.2°C 86% 2.0 mph WSW3.2 kmh WSW -- 29.54 in1000.3 mb 0.00 in0.0 mm 0.00 in0.0 mm 0.00 in0.0 mm
06:10 PM 24.3°F-4.3°C 20.7°F-6.3°C 86% 4.0 mph WSW6.4 kmh WSW -- 29.54 in1000.3 mb 0.00 in0.0 mm 0.00 in0.0 mm 0.00 in0.0 mm
06:15 PM 24.6°F-4.1°C 21.4°F-5.9°C 87% 4.0 mph WSW6.4 kmh WSW -- 29.54 in1000.3 mb 0.00 in0.0 mm 0.00 in0.0 mm 0.00 in0.0 mm
06:20 PM 24.5°F-4.2°C 20.8°F-6.2°C 86% 4.0 mph WSW6.4 kmh WSW -- 29.54 in1000.3 mb 0.00 in0.0 mm 0.00 in0.0 mm 0.00 in0.0 mm
06:25 PM 24.5°F-4.2°C 21.2°F-6.0°C 87% 6.0 mph WSW9.7 kmh WSW 8.0 mph12.9 kmh 29.54 in1000.3 mb 0.00 in0.0 mm 0.00 in0.0 mm 0.00 in0.0 mm
06:30 PM 24.7°F-4.1°C 21.0°F-6.1°C 86% 3.0 mph WSW4.8 kmh WSW -- 29.54 in1000.3 mb 0.00 in0.0 mm 0.00 in0.0 mm 0.00 in0.0 mm
06:35 PM 25.2°F-3.8°C 21.9°F-5.6°C 87% 4.0 mph WSW6.4 kmh WSW -- 29.54 in1000.3 mb 0.00 in0.0 mm 0.00 in0.0 mm 0.00 in0.0 mm
06:40 PM 25.4°F-3.7°C 21.7°F-5.7°C 86% 5.0 mph WSW8.0 kmh WSW -- 29.54 in1000.3 mb 0.00 in0.0 mm 0.00 in0.0 mm 0.00 in0.0 mm
06:45 PM 26.3°F-3.2°C 22.8°F-5.1°C 87% 3.0 mph WSW4.8 kmh WSW -- 29.54 in1000.3 mb 0.00 in0.0 mm 0.00 in0.0 mm 0.00 in0.0 mm
06:50 PM 26.9°F-2.8°C 23.4°F-4.8°C 86% 1.0 mph WSW1.6 kmh WSW 5.0 mph8.0 kmh 29.54 in1000.3 mb 0.00 in0.0 mm 0.00 in0.0 mm 0.00 in0.0 mm
06:55 PM 28.1°F-2.2°C 24.1°F-4.4°C 85% 2.0 mph WSW3.2 kmh WSW -- 29.54 in1000.3 mb 0.00 in0.0 mm 0.00 in0.0 mm 0.00 in0.0 mm
07:00 PM 28.0°F-2.2°C 23.5°F-4.7°C 83% 2.0 mph WSW3.2 kmh WSW -- 29.55 in1000.7 mb 0.00 in0.0 mm 0.00 in0.0 mm 0.00 in0.0 mm
07:05 PM 28.1°F-2.2°C 23.5°F-4.7°C 83% 2.0 mph WSW3.2 kmh WSW -- 29.55 in1000.7 mb 0.00 in0.0 mm 0.00 in0.0 mm 0.00 in0.0 mm
07:10 PM 28.0°F-2.2°C 23.5°F-4.7°C 83% 2.0 mph WSW3.2 kmh WSW -- 29.55 in1000.7 mb 0.00 in0.0 mm 0.00 in0.0 mm 0.00 in0.0 mm
07:15 PM 27.7°F-2.4°C 23.2°F-4.9°C 83% 3.0 mph SW4.8 kmh SW 3.0 mph4.8 kmh 29.55 in1000.7 mb 0.00 in0.0 mm 0.00 in0.0 mm 0.00 in0.0 mm
07:20 PM 29.0°F-1.7°C 24.8°F-4.0°C 84% Calm Calm -- 29.55 in1000.7 mb 0.00 in0.0 mm 0.00 in0.0 mm 0.00 in0.0 mm
07:25 PM 29.5°F-1.4°C 24.6°F-4.1°C 82% 3.0 mph W4.8 kmh W -- 29.55 in1000.7 mb 0.00 in0.0 mm 0.00 in0.0 mm 0.00 in0.0 mm
07:30 PM 29.7°F-1.3°C 24.6°F-4.1°C 81% 3.0 mph NNE4.8 kmh NNE -- 29.55 in1000.7 mb 0.00 in0.0 mm 0.00 in0.0 mm 0.00 in0.0 mm
07:35 PM 29.7°F-1.3°C 24.6°F-4.1°C 81% 1.0 mph NNE1.6 kmh NNE -- 29.55 in1000.7 mb 0.00 in0.0 mm 0.00 in0.0 mm 0.00 in0.0 mm
07:40 PM 29.7°F-1.3°C 24.6°F-4.1°C 81% Calm Calm 3.0 mph4.8 kmh 29.55 in1000.7 mb 0.00 in0.0 mm 0.00 in0.0 mm 0.00 in0.0 mm
07:45 PM 29.4°F-1.4°C 24.4°F-4.2°C 81% 3.0 mph N4.8 kmh N -- 29.55 in1000.7 mb 0.00 in0.0 mm 0.00 in0.0 mm 0.00 in0.0 mm
07:50 PM 29.3°F-1.5°C 24.3°F-4.3°C 81% 1.0 mph N1.6 kmh N -- 29.55 in1000.7 mb 0.00 in0.0 mm 0.00 in0.0 mm 0.00 in0.0 mm
07:55 PM 28.6°F-1.9°C 23.5°F-4.7°C 81% 1.0 mph NNW1.6 kmh NNW -- 29.55 in1000.7 mb 0.00 in0.0 mm 0.00 in0.0 mm 0.00 in0.0 mm
08:00 PM 27.8°F-2.3°C 23.2°F-4.9°C 82% 2.0 mph SW3.2 kmh SW -- 29.56 in1001.0 mb 0.00 in0.0 mm 0.00 in0.0 mm 0.00 in0.0 mm
08:05 PM 27.6°F-2.4°C 23.5°F-4.7°C 84% 2.0 mph SW3.2 kmh SW 3.0 mph4.8 kmh 29.56 in1001.0 mb 0.00 in0.0 mm 0.00 in0.0 mm 0.00 in0.0 mm
08:10 PM 28.0°F-2.2°C 24.1°F-4.4°C 85% 2.0 mph WSW3.2 kmh WSW -- 29.56 in1001.0 mb 0.00 in0.0 mm 0.00 in0.0 mm 0.00 in0.0 mm
08:15 PM 28.9°F-1.7°C 25.0°F-3.9°C 85% 2.0 mph WSW3.2 kmh WSW -- 29.56 in1001.0 mb 0.00 in0.0 mm 0.00 in0.0 mm 0.00 in0.0 mm
08:20 PM 29.1°F-1.6°C 25.0°F-3.9°C 84% Calm Calm -- 29.56 in1001.0 mb 0.00 in0.0 mm 0.00 in0.0 mm 0.00 in0.0 mm
08:25 PM 29.7°F-1.3°C 25.3°F-3.7°C 84% Calm Calm -- 29.56 in1001.0 mb 0.00 in0.0 mm 0.00 in0.0 mm 0.00 in0.0 mm
08:30 PM 29.9°F-1.2°C 25.0°F-3.9°C 82% 2.0 mph SW3.2 kmh SW 3.0 mph4.8 kmh 29.56 in1001.0 mb 0.00 in0.0 mm 0.00 in0.0 mm 0.00 in0.0 mm
08:35 PM 29.3°F-1.5°C 24.3°F-4.3°C 81% 3.0 mph WSW4.8 kmh WSW -- 29.56 in1001.0 mb 0.00 in0.0 mm 0.00 in0.0 mm 0.00 in0.0 mm
08:40 PM 28.4°F-2.0°C 23.4°F-4.8°C 81% 7.0 mph WSW11.3 kmh WSW -- 29.56 in1001.0 mb 0.00 in0.0 mm 0.00 in0.0 mm 0.00 in0.0 mm
08:45 PM 28.5°F-1.9°C 24.1°F-4.4°C 83% 3.0 mph SW4.8 kmh SW -- 29.56 in1001.0 mb 0.00 in0.0 mm 0.00 in0.0 mm 0.00 in0.0 mm
08:50 PM 28.2°F-2.1°C 23.7°F-4.6°C 83% Calm Calm -- 29.56 in1001.0 mb 0.00 in0.0 mm 0.00 in0.0 mm 0.00 in0.0 mm
08:55 PM 28.2°F-2.1°C 23.7°F-4.6°C 83% 4.0 mph SSW6.4 kmh SSW 5.0 mph8.0 kmh 29.56 in1001.0 mb 0.00 in0.0 mm 0.00 in0.0 mm 0.00 in0.0 mm
09:00 PM 29.0°F-1.7°C 24.8°F-4.0°C 84% 2.0 mph SW3.2 kmh SW -- 29.56 in1001.0 mb 0.00 in0.0 mm 0.00 in0.0 mm 0.00 in0.0 mm
09:05 PM 29.0°F-1.7°C 24.1°F-4.4°C 82% 3.0 mph WSW4.8 kmh WSW -- 29.56 in1001.0 mb 0.00 in0.0 mm 0.00 in0.0 mm 0.00 in0.0 mm
09:10 PM 28.9°F-1.7°C 24.4°F-4.2°C 83% 3.0 mph W4.8 kmh W -- 29.56 in1001.0 mb 0.00 in0.0 mm 0.00 in0.0 mm 0.00 in0.0 mm
09:15 PM 29.1°F-1.6°C 24.6°F-4.1°C 83% 3.0 mph WSW4.8 kmh WSW -- 29.56 in1001.0 mb 0.00 in0.0 mm 0.00 in0.0 mm 0.00 in0.0 mm
09:20 PM 28.3°F-2.1°C 23.2°F-4.9°C 81% 3.0 mph SW4.8 kmh SW 5.0 mph8.0 kmh 29.56 in1001.0 mb 0.00 in0.0 mm 0.00 in0.0 mm 0.00 in0.0 mm
09:25 PM 27.6°F-2.4°C 23.2°F-4.9°C 83% 1.0 mph WSW1.6 kmh WSW -- 29.56 in1001.0 mb 0.00 in0.0 mm 0.00 in0.0 mm 0.00 in0.0 mm
09:30 PM 27.8°F-2.3°C 23.4°F-4.8°C 83% 3.0 mph WSW4.8 kmh WSW -- 29.56 in1001.0 mb 0.00 in0.0 mm 0.00 in0.0 mm 0.00 in0.0 mm
09:35 PM 27.8°F-2.3°C 23.7°F-4.6°C 84% Calm Calm -- 29.56 in1001.0 mb 0.00 in0.0 mm 0.00 in0.0 mm 0.00 in0.0 mm
09:40 PM 27.5°F-2.5°C 23.0°F-5.0°C 83% 2.0 mph W3.2 kmh W -- 29.56 in1001.0 mb 0.00 in0.0 mm 0.00 in0.0 mm 0.00 in0.0 mm
09:45 PM 27.1°F-2.7°C 22.6°F-5.2°C 83% Calm Calm 3.0 mph4.8 kmh 29.57 in1001.4 mb 0.00 in0.0 mm 0.00 in0.0 mm 0.00 in0.0 mm
09:50 PM 27.2°F-2.7°C 23.0°F-5.0°C 84% Calm Calm -- 29.57 in1001.4 mb 0.00 in0.0 mm 0.00 in0.0 mm 0.00 in0.0 mm
09:55 PM 26.7°F-2.9°C 22.6°F-5.2°C 84% 3.0 mph WSW4.8 kmh WSW -- 29.57 in1001.4 mb 0.00 in0.0 mm 0.00 in0.0 mm 0.00 in0.0 mm
10:00 PM 26.4°F-3.1°C 22.5°F-5.3°C 85% 3.0 mph WSW4.8 kmh WSW -- 29.57 in1001.4 mb 0.00 in0.0 mm 0.00 in0.0 mm 0.00 in0.0 mm
10:05 PM 26.5°F-3.1°C 22.8°F-5.1°C 86% 4.0 mph WSW6.4 kmh WSW -- 29.57 in1001.4 mb 0.00 in0.0 mm 0.00 in0.0 mm 0.00 in0.0 mm
10:10 PM 26.8°F-2.9°C 23.2°F-4.9°C 86% 2.0 mph W3.2 kmh W 6.0 mph9.7 kmh 29.57 in1001.4 mb 0.00 in0.0 mm 0.00 in0.0 mm 0.00 in0.0 mm
10:15 PM 26.8°F-2.9°C 23.2°F-4.9°C 86% 1.0 mph SW1.6 kmh SW -- 29.57 in1001.4 mb 0.00 in0.0 mm 0.00 in0.0 mm 0.00 in0.0 mm
10:20 PM 26.9°F-2.8°C 23.4°F-4.8°C 86% Calm Calm -- 29.57 in1001.4 mb 0.00 in0.0 mm 0.00 in0.0 mm 0.00 in0.0 mm
10:25 PM 27.2°F-2.7°C 23.5°F-4.7°C 86% Calm Calm -- 29.57 in1001.4 mb 0.00 in0.0 mm 0.00 in0.0 mm 0.00 in0.0 mm
10:30 PM 27.3°F-2.6°C 23.4°F-4.8°C 85% Calm Calm -- 29.57 in1001.4 mb 0.00 in0.0 mm 0.00 in0.0 mm 0.00 in0.0 mm
10:35 PM 27.2°F-2.7°C 23.2°F-4.9°C 85% 1.0 mph NW1.6 kmh NW 2.0 mph3.2 kmh 29.57 in1001.4 mb 0.00 in0.0 mm 0.00 in0.0 mm 0.00 in0.0 mm
10:40 PM 27.4°F-2.6°C 23.4°F-4.8°C 85% Calm Calm -- 29.57 in1001.4 mb 0.00 in0.0 mm 0.00 in0.0 mm 0.00 in0.0 mm
10:45 PM 27.9°F-2.3°C 24.3°F-4.3°C 86% 3.0 mph NE4.8 kmh NE -- 29.57 in1001.4 mb 0.00 in0.0 mm 0.00 in0.0 mm 0.00 in0.0 mm
10:50 PM 28.7°F-1.8°C 24.8°F-4.0°C 85% Calm Calm -- 29.58 in1001.7 mb 0.00 in0.0 mm 0.00 in0.0 mm 0.00 in0.0 mm
10:55 PM 29.2°F-1.6°C 25.2°F-3.8°C 85% 4.0 mph SSW6.4 kmh SSW -- 29.57 in1001.4 mb 0.00 in0.0 mm 0.00 in0.0 mm 0.00 in0.0 mm
11:00 PM 29.0°F-1.7°C 24.4°F-4.2°C 83% 3.0 mph WNW4.8 kmh WNW 6.0 mph9.7 kmh 29.57 in1001.4 mb 0.00 in0.0 mm 0.00 in0.0 mm 0.00 in0.0 mm
11:05 PM 28.8°F-1.8°C 23.9°F-4.5°C 82% 2.0 mph WSW3.2 kmh WSW -- 29.58 in1001.7 mb 0.00 in0.0 mm 0.00 in0.0 mm 0.00 in0.0 mm
11:10 PM 28.5°F-1.9°C 24.1°F-4.4°C 83% 5.0 mph WSW8.0 kmh WSW -- 29.58 in1001.7 mb 0.00 in0.0 mm 0.00 in0.0 mm 0.00 in0.0 mm
11:15 PM 28.4°F-2.0°C 24.3°F-4.3°C 84% 2.0 mph WSW3.2 kmh WSW -- 29.58 in1001.7 mb 0.00 in0.0 mm 0.00 in0.0 mm 0.00 in0.0 mm
11:20 PM 28.1°F-2.2°C 23.5°F-4.7°C 83% Calm Calm -- 29.58 in1001.7 mb 0.00 in0.0 mm 0.00 in0.0 mm 0.00 in0.0 mm
11:25 PM 28.0°F-2.2°C 23.9°F-4.5°C 84% 4.0 mph SSW6.4 kmh SSW 5.0 mph8.0 kmh 29.58 in1001.7 mb 0.00 in0.0 mm 0.00 in0.0 mm 0.00 in0.0 mm
11:30 PM 26.7°F-2.9°C 22.3°F-5.4°C 83% 3.0 mph WSW4.8 kmh WSW -- 29.59 in1002.0 mb 0.00 in0.0 mm 0.00 in0.0 mm 0.00 in0.0 mm
11:35 PM 27.9°F-2.3°C 24.3°F-4.3°C 86% 4.0 mph SW6.4 kmh SW -- 29.59 in1002.0 mb 0.00 in0.0 mm 0.00 in0.0 mm 0.00 in0.0 mm
11:40 PM 28.3°F-2.1°C 24.3°F-4.3°C 85% 3.0 mph WSW4.8 kmh WSW -- 29.59 in1002.0 mb 0.00 in0.0 mm 0.00 in0.0 mm 0.00 in0.0 mm
11:45 PM 28.3°F-2.1°C 24.3°F-4.3°C 85% 3.0 mph WSW4.8 kmh WSW -- 29.59 in1002.0 mb 0.00 in0.0 mm 0.00 in0.0 mm 0.00 in0.0 mm
11:50 PM 28.1°F-2.2°C 23.9°F-4.5°C 84% 4.0 mph WSW6.4 kmh WSW 7.0 mph11.3 kmh 29.59 in1002.0 mb 0.00 in0.0 mm 0.00 in0.0 mm 0.00 in0.0 mm
11:55 PM 28.4°F-2.0°C 24.4°F-4.2°C 85% 4.0 mph WSW6.4 kmh WSW -- 29.59 in1002.0 mb 0.00 in0.0 mm 0.00 in0.0 mm 0.00 in0.0 mm